createdAt,value
2023-03-12T00:01:14.105Z,7.72
2023-03-12T00:03:40.882Z,7.77
2023-03-12T00:06:10.804Z,7.02
2023-03-12T00:08:38.350Z,7.31
2023-03-12T00:11:17.686Z,7.69
2023-03-12T00:13:44.962Z,7.44
2023-03-12T00:16:14.382Z,7.57
2023-03-12T00:18:41.899Z,7.13
2023-03-12T00:21:08.826Z,7.54
2023-03-12T00:23:35.914Z,7.53
2023-03-12T00:26:12.296Z,7.46
2023-03-12T00:28:39.446Z,7.41
2023-03-12T00:31:21.018Z,7.41
2023-03-12T00:33:51.492Z,7.29
2023-03-12T00:36:19.747Z,7.29
2023-03-12T00:38:46.396Z,7.15
2023-03-12T00:41:13.082Z,7.15
2023-03-12T00:43:39.843Z,6.93
2023-03-12T00:46:06.590Z,7.06
2023-03-12T00:48:33.415Z,6.94
2023-03-12T00:51:00.024Z,6.88
2023-03-12T00:53:26.623Z,6.83
2023-03-12T00:55:53.264Z,6.29
2023-03-12T00:58:19.909Z,6.03
2023-03-12T01:00:46.648Z,6.11
2023-03-12T01:03:13.747Z,6.43
2023-03-12T01:05:40.957Z,6.57
2023-03-12T01:08:08.935Z,6.39
2023-03-12T01:10:37.075Z,6.82
2023-03-12T01:13:04.097Z,6.87
2023-03-12T01:15:30.739Z,6.93
2023-03-12T01:17:57.308Z,6.92
2023-03-12T01:20:23.928Z,7.01
2023-03-12T01:22:51.551Z,6.58
2023-03-12T01:25:18.733Z,6.93
2023-03-12T01:27:45.741Z,7.12
2023-03-12T01:30:13.072Z,7.17
2023-03-12T01:32:39.823Z,7.16
2023-03-12T01:35:07.327Z,6.61
2023-03-12T01:37:34.096Z,6.58
2023-03-12T01:40:01.305Z,6.68
2023-03-12T01:42:27.967Z,7.17
2023-03-12T01:45:00.037Z,7.10
2023-03-12T01:47:28.126Z,7.17
2023-03-12T01:49:55.828Z,7.26
2023-03-12T01:52:27.608Z,6.82
2023-03-12T01:55:03.444Z,7.27
2023-03-12T01:57:33.013Z,7.04
2023-03-12T02:00:09.760Z,6.95
2023-03-12T02:02:36.774Z,6.75
2023-03-12T02:05:13.591Z,7.01
2023-03-12T02:07:40.216Z,7.20
2023-03-12T02:10:07.260Z,7.12
2023-03-12T02:12:33.963Z,6.76
2023-03-12T02:15:00.850Z,7.44
2023-03-12T02:17:27.772Z,7.24
2023-03-12T02:20:12.294Z,7.28
2023-03-12T02:22:42.598Z,7.25
2023-03-12T02:25:30.985Z,7.38
2023-03-12T02:28:01.754Z,7.22
2023-03-12T02:30:30.194Z,6.85
2023-03-12T02:33:00.069Z,7.24
2023-03-12T02:35:26.876Z,6.55
2023-03-12T02:37:56.070Z,6.96
2023-03-12T02:40:31.901Z,6.75
2023-03-12T02:42:58.621Z,6.66
2023-03-12T02:45:26.681Z,6.52
2023-03-12T02:47:53.473Z,5.70
2023-03-12T02:50:20.179Z,6.47
2023-03-12T02:52:46.895Z,6.29
2023-03-12T02:55:13.645Z,6.02
2023-03-12T02:57:40.688Z,6.63
2023-03-12T03:00:17.939Z,5.95
2023-03-12T03:02:44.535Z,5.88
2023-03-12T03:05:12.274Z,6.70
2023-03-12T03:07:39.323Z,6.47
2023-03-12T03:10:06.410Z,6.67
2023-03-12T03:12:37.476Z,6.74
2023-03-12T03:15:05.263Z,6.63
2023-03-12T03:17:31.871Z,5.78
2023-03-12T03:19:58.487Z,6.75
2023-03-12T03:22:25.076Z,6.55
2023-03-12T03:24:53.321Z,6.52
2023-03-12T03:27:20.363Z,6.51
2023-03-12T03:29:47.029Z,6.48
2023-03-12T03:32:13.921Z,6.46
2023-03-12T03:34:40.642Z,5.86
2023-03-12T03:37:07.312Z,6.31
2023-03-12T03:39:34.683Z,6.37
2023-03-12T03:42:01.364Z,5.66
2023-03-12T03:44:27.981Z,6.22
2023-03-12T03:46:55.496Z,6.20
2023-03-12T03:49:22.651Z,6.17
2023-03-12T03:51:50.065Z,6.22
2023-03-12T03:54:16.768Z,6.34
2023-03-12T03:56:43.371Z,6.32
2023-03-12T03:59:09.985Z,5.90
2023-03-12T04:01:36.984Z,6.39
2023-03-12T04:04:04.564Z,5.98
2023-03-12T04:06:31.349Z,6.36
2023-03-12T04:08:58.562Z,6.13
2023-03-12T04:11:25.841Z,6.21
2023-03-12T04:13:52.483Z,6.03
2023-03-12T04:16:19.512Z,5.44
2023-03-12T04:18:46.101Z,5.98
2023-03-12T04:21:14.182Z,6.04
2023-03-12T04:23:41.352Z,5.79
2023-03-12T04:26:08.428Z,5.83
2023-03-12T04:28:36.084Z,5.86
2023-03-12T04:31:05.505Z,5.90
2023-03-12T04:33:34.680Z,6.01
2023-03-12T04:36:01.264Z,5.91
2023-03-12T04:38:28.318Z,5.96
2023-03-12T04:41:04.097Z,5.96
2023-03-12T04:43:31.978Z,6.14
2023-03-12T04:45:58.893Z,5.28
2023-03-12T04:48:25.829Z,6.03
2023-03-12T04:50:52.596Z,5.78
2023-03-12T04:53:19.412Z,5.82
2023-03-12T04:55:46.086Z,5.47
2023-03-12T04:58:13.031Z,5.42
2023-03-12T05:00:41.103Z,5.35
2023-03-12T05:03:08.220Z,4.62
2023-03-12T05:05:35.934Z,5.20
2023-03-12T05:08:03.553Z,5.31
2023-03-12T05:10:30.317Z,5.24
2023-03-12T05:12:56.962Z,5.42
2023-03-12T05:15:23.720Z,5.51
2023-03-12T05:17:50.424Z,5.68
2023-03-12T05:20:19.792Z,5.35
2023-03-12T05:22:46.416Z,5.38
2023-03-12T05:25:13.023Z,5.53
2023-03-12T05:27:39.683Z,5.82
2023-03-12T05:30:07.478Z,5.87
2023-03-12T05:32:34.088Z,5.96
2023-03-12T05:35:00.690Z,6.32
2023-03-12T05:37:27.538Z,6.18
2023-03-12T05:39:54.819Z,6.44
2023-03-12T05:42:21.472Z,6.76
2023-03-12T05:44:48.277Z,6.81
2023-03-12T05:47:14.886Z,7.05
2023-03-12T05:49:41.580Z,6.79
2023-03-12T05:52:08.296Z,7.35
2023-03-12T05:54:34.902Z,7.40
2023-03-12T05:57:03.134Z,7.59
2023-03-12T05:59:29.859Z,7.36
2023-03-12T06:01:57.309Z,7.91
2023-03-12T06:04:24.056Z,7.45
2023-03-12T06:06:50.634Z,7.86
2023-03-12T06:09:17.213Z,8.14
2023-03-12T06:11:43.844Z,7.83
2023-03-12T06:14:10.455Z,8.10
2023-03-12T06:16:37.073Z,7.75
2023-03-12T06:19:03.977Z,8.59
2023-03-12T06:21:33.817Z,8.76
2023-03-12T06:24:01.132Z,8.79
2023-03-12T06:26:28.819Z,8.69
2023-03-12T06:28:55.560Z,8.42
2023-03-12T06:31:23.752Z,8.88
2023-03-12T06:33:50.876Z,7.96
2023-03-12T06:36:18.196Z,7.46
2023-03-12T06:38:44.863Z,7.64
2023-03-12T06:41:18.265Z,7.41
2023-03-12T06:43:45.108Z,7.76
2023-03-12T06:46:15.404Z,7.34
2023-03-12T06:48:42.349Z,7.74
2023-03-12T06:51:10.815Z,8.10
2023-03-12T06:53:41.867Z,8.20
2023-03-12T06:56:09.532Z,8.02
2023-03-12T06:58:36.198Z,7.57
2023-03-12T07:01:02.893Z,8.20
2023-03-12T07:03:29.490Z,8.27
2023-03-12T07:05:57.852Z,8.47
2023-03-12T07:08:25.776Z,8.24
2023-03-12T07:10:52.389Z,8.19
2023-03-12T07:13:19.093Z,8.36
2023-03-12T07:15:46.618Z,8.17
2023-03-12T07:18:14.026Z,8.56
2023-03-12T07:20:44.051Z,8.63
2023-03-12T07:23:11.150Z,8.57
2023-03-12T07:25:39.847Z,8.49
2023-03-12T07:28:07.620Z,8.89
2023-03-12T07:30:34.588Z,8.88
2023-03-12T07:33:06.969Z,8.73
2023-03-12T07:35:34.016Z,8.78
2023-03-12T07:38:01.803Z,8.43
2023-03-12T07:40:29.237Z,8.78
2023-03-12T07:42:55.850Z,8.74
2023-03-12T07:45:22.679Z,8.96
2023-03-12T07:47:49.774Z,8.88
2023-03-12T07:50:17.816Z,8.74
2023-03-12T07:52:45.378Z,8.75
2023-03-12T07:55:12.627Z,8.81
2023-03-12T07:57:39.649Z,8.40
2023-03-12T08:00:08.737Z,8.88
2023-03-12T08:02:35.393Z,9.01
2023-03-12T08:05:02.692Z,9.27
2023-03-12T08:07:32.510Z,9.21
2023-03-12T08:09:59.921Z,9.55
2023-03-12T08:12:27.432Z,9.48
2023-03-12T08:14:54.114Z,8.91
2023-03-12T08:17:20.766Z,9.12
2023-03-12T08:19:47.562Z,9.46
2023-03-12T08:22:14.223Z,9.74
2023-03-12T08:24:41.044Z,9.86
2023-03-12T08:27:07.676Z,10.45
2023-03-12T08:29:34.253Z,10.38
2023-03-12T08:32:05.403Z,10.07
2023-03-12T08:34:35.693Z,10.14
2023-03-12T08:37:03.108Z,10.23
2023-03-12T08:39:29.952Z,10.41
2023-03-12T08:41:56.744Z,10.52
2023-03-12T08:44:25.580Z,10.72
2023-03-12T08:46:52.869Z,10.24
2023-03-12T08:49:22.555Z,10.31
2023-03-12T08:51:49.669Z,10.98
2023-03-12T08:54:16.252Z,11.16
2023-03-12T08:56:43.798Z,11.04
2023-03-12T08:59:11.809Z,11.04
2023-03-12T09:01:38.805Z,10.87
2023-03-12T09:04:06.063Z,10.93
2023-03-12T09:06:35.296Z,10.47
2023-03-12T09:09:05.128Z,10.73
2023-03-12T09:11:33.954Z,10.46
2023-03-12T09:16:48.380Z,11.20
2023-03-12T09:19:15.478Z,11.49
2023-03-12T09:21:42.081Z,11.65
2023-03-12T09:24:09.995Z,11.33
2023-03-12T09:26:36.700Z,11.92
2023-03-12T09:29:03.283Z,12.26
2023-03-12T09:31:29.850Z,12.50
2023-03-12T09:33:56.545Z,12.30
2023-03-12T09:36:23.254Z,12.39
2023-03-12T09:38:49.857Z,11.79
2023-03-12T09:41:23.583Z,11.70
2023-03-12T09:44:00.049Z,10.82
2023-03-12T09:46:42.185Z,10.76
2023-03-12T09:49:22.960Z,10.22
2023-03-12T09:51:54.189Z,9.84
2023-03-12T09:54:41.834Z,10.11
2023-03-12T09:57:24.228Z,9.95
2023-03-12T09:59:52.501Z,10.30
2023-03-12T10:02:37.361Z,9.91
2023-03-12T10:05:34.491Z,10.29
2023-03-12T10:08:23.180Z,10.22
2023-03-12T10:11:12.300Z,10.09
2023-03-12T10:14:23.820Z,10.66
2023-03-12T10:17:22.150Z,10.58
2023-03-12T10:20:05.493Z,11.23
2023-03-12T10:22:46.649Z,10.43
2023-03-12T10:25:46.536Z,10.66
2023-03-12T10:28:21.085Z,10.86
2023-03-12T10:30:54.352Z,11.32
2023-03-12T10:33:23.163Z,10.10
2023-03-12T10:35:51.598Z,10.73
2023-03-12T10:38:26.909Z,10.57
2023-03-12T10:40:53.596Z,10.84
2023-03-12T10:43:20.257Z,10.83
2023-03-12T10:46:12.168Z,10.76
2023-03-12T10:48:38.765Z,10.56
2023-03-12T10:51:11.553Z,10.34
2023-03-12T10:53:45.028Z,10.46
2023-03-12T10:56:16.896Z,10.72
2023-03-12T10:58:53.450Z,11.36
2023-03-12T11:01:31.307Z,10.93
2023-03-12T11:04:23.483Z,11.32
2023-03-12T11:07:14.751Z,10.73
2023-03-12T11:09:41.408Z,10.90
2023-03-12T11:12:32.099Z,11.61
2023-03-12T11:14:59.168Z,11.25
2023-03-12T11:17:28.578Z,10.91
2023-03-12T11:19:55.414Z,11.43
2023-03-12T11:22:35.394Z,11.27
2023-03-12T11:25:07.050Z,11.10
2023-03-12T11:27:44.151Z,10.73
2023-03-12T11:30:15.395Z,9.99
2023-03-12T11:32:45.935Z,10.29
2023-03-12T11:35:15.822Z,10.24
2023-03-12T11:37:51.382Z,10.24
2023-03-12T11:40:17.914Z,10.62
2023-03-12T11:43:13.666Z,11.08
2023-03-12T11:46:25.262Z,11.25
2023-03-12T11:49:13.651Z,11.02
2023-03-12T11:52:00.741Z,10.83
2023-03-12T11:54:51.748Z,10.68
2023-03-12T11:57:48.836Z,10.13
2023-03-12T12:00:25.748Z,10.15
2023-03-12T12:03:04.301Z,10.20
2023-03-12T12:05:33.637Z,10.61
2023-03-12T12:08:15.211Z,10.58
2023-03-12T12:10:44.721Z,11.21
2023-03-12T12:13:30.050Z,11.35
2023-03-12T12:16:26.538Z,10.53
2023-03-12T12:19:09.018Z,11.16
2023-03-12T12:21:35.578Z,10.67
2023-03-12T12:24:24.164Z,10.41
2023-03-12T12:27:02.401Z,10.00
2023-03-12T12:30:00.112Z,10.56
2023-03-12T12:33:05.364Z,10.54
2023-03-12T12:35:43.206Z,10.55
2023-03-12T12:38:17.304Z,10.44
2023-03-12T12:40:49.361Z,9.91
2023-03-12T12:43:30.208Z,10.41
2023-03-12T12:46:04.296Z,10.18
2023-03-12T12:48:40.048Z,10.37
2023-03-12T12:51:09.127Z,10.49
2023-03-12T12:53:38.444Z,10.25
2023-03-12T12:56:38.690Z,9.74
2023-03-12T12:59:08.165Z,10.20
2023-03-12T13:01:36.701Z,10.48
2023-03-12T13:04:34.405Z,10.56
2023-03-12T13:07:25.232Z,10.73
2023-03-12T13:09:56.473Z,10.58
2023-03-12T13:12:33.289Z,10.73
2023-03-12T13:15:01.423Z,10.40
2023-03-12T13:17:35.205Z,10.06
2023-03-12T13:20:11.080Z,9.87
2023-03-12T13:22:58.375Z,9.93
2023-03-12T13:25:43.590Z,10.25
2023-03-12T13:28:34.888Z,10.57
2023-03-12T13:31:29.464Z,10.15
2023-03-12T13:34:20.354Z,10.01
2023-03-12T13:36:51.304Z,10.45
2023-03-12T13:39:17.833Z,9.91
2023-03-12T13:41:55.906Z,9.74
2023-03-12T13:44:34.462Z,9.64
2023-03-12T13:47:26.975Z,9.77
2023-03-12T13:49:58.619Z,9.38
2023-03-12T13:52:40.392Z,9.45
2023-03-12T13:55:13.015Z,9.64
2023-03-12T13:57:41.717Z,9.92
2023-03-12T14:00:31.251Z,10.07
2023-03-12T14:03:02.531Z,9.84
2023-03-12T14:05:44.209Z,9.65
2023-03-12T14:08:35.579Z,9.23
2023-03-12T14:11:33.533Z,9.18
2023-03-12T14:14:41.470Z,9.69
2023-03-12T14:17:36.159Z,10.11
2023-03-12T14:20:25.510Z,9.75
2023-03-12T14:23:00.883Z,9.72
2023-03-12T14:25:39.580Z,9.61
2023-03-12T14:28:27.266Z,9.25
2023-03-12T14:31:04.992Z,9.25
2023-03-12T14:33:35.996Z,8.90
2023-03-12T14:36:44.751Z,9.02
2023-03-12T14:39:33.462Z,8.83
2023-03-12T14:42:05.076Z,8.75
2023-03-12T14:44:33.613Z,8.99
2023-03-12T14:47:06.984Z,8.91
2023-03-12T14:49:39.111Z,8.72
2023-03-12T14:52:06.082Z,7.69
2023-03-12T14:54:32.831Z,8.00
2023-03-12T14:56:59.628Z,8.19
2023-03-12T14:59:32.071Z,8.22
2023-03-12T15:02:11.046Z,8.11
2023-03-12T15:04:38.128Z,8.16
2023-03-12T15:07:06.909Z,7.75
2023-03-12T15:09:35.748Z,7.60
2023-03-12T15:12:24.102Z,8.06
2023-03-12T15:14:55.026Z,8.00
2023-03-12T15:17:25.518Z,7.71
2023-03-12T15:19:54.717Z,8.05
2023-03-12T15:22:24.870Z,7.70
2023-03-12T15:24:52.101Z,7.98
2023-03-12T15:27:30.643Z,7.74
2023-03-12T15:29:59.290Z,7.86
2023-03-12T15:32:27.453Z,7.94
2023-03-12T15:34:57.583Z,7.70
2023-03-12T15:37:35.287Z,7.61
2023-03-12T15:40:06.483Z,7.69
2023-03-12T15:42:40.172Z,7.59
2023-03-12T15:45:21.800Z,7.17
2023-03-12T15:47:50.375Z,7.34
2023-03-12T15:50:20.013Z,7.54
2023-03-12T15:53:27.731Z,7.50
2023-03-12T15:56:09.677Z,7.53
2023-03-12T15:58:41.630Z,7.50
2023-03-12T16:01:12.662Z,7.67
2023-03-12T16:03:40.656Z,7.57
2023-03-12T16:06:13.459Z,7.35
2023-03-12T16:08:43.731Z,6.99
2023-03-12T16:11:17.220Z,7.14
2023-03-12T16:13:45.066Z,7.17
2023-03-12T16:16:13.195Z,7.19
2023-03-12T16:18:42.060Z,7.30
2023-03-12T16:21:09.186Z,7.25
2023-03-12T16:23:35.882Z,6.28
2023-03-12T16:26:05.039Z,6.67
2023-03-12T16:28:36.579Z,7.31
2023-03-12T16:31:03.530Z,7.27
2023-03-12T16:33:30.184Z,7.23
2023-03-12T16:35:57.116Z,7.21
2023-03-12T16:38:23.801Z,6.65
2023-03-12T16:40:52.072Z,7.24
2023-03-12T16:43:30.573Z,7.13
2023-03-12T16:45:57.971Z,7.12
2023-03-12T16:48:25.559Z,7.28
2023-03-12T16:50:55.705Z,7.36
2023-03-12T16:53:23.263Z,7.32
2023-03-12T16:55:53.748Z,7.46
2023-03-12T16:58:21.297Z,7.44
2023-03-12T17:00:49.216Z,7.53
2023-03-12T17:03:27.820Z,7.53
2023-03-12T17:05:54.481Z,7.38
2023-03-12T17:08:21.182Z,7.51
2023-03-12T17:10:47.756Z,7.44
2023-03-12T17:13:20.408Z,7.05
2023-03-12T17:15:47.765Z,7.08
2023-03-12T17:18:14.395Z,6.94
2023-03-12T17:20:41.067Z,6.97
2023-03-12T17:23:10.594Z,7.40
2023-03-12T17:25:40.736Z,7.53
2023-03-12T17:28:08.129Z,7.61
2023-03-12T17:30:35.609Z,7.60
2023-03-12T17:33:07.949Z,7.30
2023-03-12T17:35:35.173Z,7.25
2023-03-12T17:38:01.885Z,7.19
2023-03-12T17:40:28.778Z,6.47
2023-03-12T17:42:55.865Z,6.75
2023-03-12T17:45:23.629Z,7.07
2023-03-12T17:47:50.238Z,7.27
2023-03-12T17:50:17.682Z,6.98
2023-03-12T17:52:44.454Z,6.47
2023-03-12T17:55:11.938Z,6.15
2023-03-12T17:57:39.116Z,6.83
2023-03-12T18:00:13.024Z,6.61
2023-03-12T18:02:41.232Z,6.75
2023-03-12T18:05:09.824Z,6.46
2023-03-12T18:07:37.131Z,6.77
2023-03-12T18:10:05.922Z,6.53
2023-03-12T18:12:32.962Z,6.13
2023-03-12T18:14:59.801Z,6.06
2023-03-12T18:17:26.368Z,6.12
2023-03-12T18:19:53.123Z,6.69
2023-03-12T18:22:20.090Z,6.71
2023-03-12T18:24:46.828Z,6.89
2023-03-12T18:27:13.871Z,6.86
2023-03-12T18:29:41.249Z,6.92
2023-03-12T18:32:08.544Z,6.97
2023-03-12T18:34:35.184Z,7.04
2023-03-12T18:37:01.823Z,7.14
2023-03-12T18:39:28.514Z,6.70
2023-03-12T18:41:55.883Z,6.85
2023-03-12T18:44:22.535Z,6.42
2023-03-12T18:46:50.976Z,7.04
2023-03-12T18:49:18.134Z,7.07
2023-03-12T18:51:44.688Z,6.97
2023-03-12T18:54:12.885Z,6.78
2023-03-12T18:56:40.997Z,6.27
2023-03-12T18:59:09.888Z,6.41
2023-03-12T19:01:37.196Z,6.03
2023-03-12T19:04:04.214Z,6.62
2023-03-12T19:06:37.812Z,6.74
2023-03-12T19:09:14.887Z,6.85
2023-03-12T19:11:41.833Z,6.84
2023-03-12T19:14:08.836Z,6.86
2023-03-12T19:16:35.678Z,6.91
2023-03-12T19:19:02.379Z,6.91
2023-03-12T19:21:29.192Z,6.96
2023-03-12T19:23:56.318Z,6.42
2023-03-12T19:26:23.339Z,6.91
2023-03-12T19:28:50.180Z,6.89
2023-03-12T19:31:16.921Z,6.53
2023-03-12T19:33:44.811Z,6.81
2023-03-12T19:36:11.628Z,6.86
2023-03-12T19:38:38.331Z,6.83
2023-03-12T19:41:08.715Z,6.63
2023-03-12T19:43:37.692Z,6.35
2023-03-12T19:46:05.299Z,6.64
2023-03-12T19:48:32.232Z,6.53
2023-03-12T19:51:08.561Z,6.50
2023-03-12T19:53:35.876Z,6.67
2023-03-12T19:56:05.072Z,6.22
2023-03-12T19:58:31.766Z,6.26
2023-03-12T20:01:03.062Z,6.44
2023-03-12T20:03:30.896Z,6.71
2023-03-12T20:05:57.503Z,6.17
2023-03-12T20:08:28.117Z,6.11
2023-03-12T20:11:02.372Z,5.97
2023-03-12T20:13:29.368Z,6.04
2023-03-12T20:15:55.974Z,6.10
2023-03-12T20:18:22.802Z,5.99
2023-03-12T20:20:49.406Z,6.08
2023-03-12T20:23:16.373Z,6.17
2023-03-12T20:25:43.004Z,6.12
2023-03-12T20:28:11.174Z,5.59
2023-03-12T20:30:41.445Z,5.61
2023-03-12T20:33:08.710Z,5.63
2023-03-12T20:35:35.954Z,5.94
2023-03-12T20:38:02.845Z,5.97
2023-03-12T20:40:29.786Z,5.93
2023-03-12T20:42:56.718Z,3.45
2023-03-12T20:45:23.463Z,5.39
2023-03-12T20:47:50.260Z,5.96
2023-03-12T20:50:17.158Z,5.81
2023-03-12T20:52:45.095Z,5.48
2023-03-12T20:55:11.777Z,5.63
2023-03-12T20:57:38.521Z,5.29
2023-03-12T21:00:05.793Z,5.65
2023-03-12T21:02:32.444Z,5.41
2023-03-12T21:04:59.056Z,5.22
2023-03-12T21:07:25.649Z,5.42
2023-03-12T21:09:52.221Z,5.75
2023-03-12T21:12:18.893Z,5.50
2023-03-12T21:14:45.513Z,5.10
2023-03-12T21:17:13.859Z,5.90
2023-03-12T21:19:41.821Z,5.05
2023-03-12T21:22:08.969Z,5.89
2023-03-12T21:24:35.873Z,5.93
2023-03-12T21:27:02.955Z,5.95
2023-03-12T21:29:29.520Z,5.75
2023-03-12T21:31:56.164Z,5.46
2023-03-12T21:34:23.639Z,5.10
2023-03-12T21:36:50.426Z,5.77
2023-03-12T21:39:17.616Z,5.67
2023-03-12T21:41:44.257Z,5.44
2023-03-12T21:44:10.835Z,5.65
2023-03-12T21:46:37.587Z,5.27
2023-03-12T21:49:04.278Z,5.52
2023-03-12T21:51:30.939Z,5.08
2023-03-12T21:53:58.648Z,5.47
2023-03-12T21:56:30.306Z,5.48
2023-03-12T21:58:57.632Z,5.48
2023-03-12T22:01:24.770Z,5.41
2023-03-12T22:03:51.910Z,5.45
2023-03-12T22:06:19.293Z,5.35
2023-03-12T22:08:49.872Z,5.41
2023-03-12T22:11:16.566Z,5.38
2023-03-12T22:13:43.224Z,3.12
2023-03-12T22:16:13.022Z,4.76
2023-03-12T22:18:42.061Z,4.52
2023-03-12T22:21:13.599Z,5.39
2023-03-12T22:23:40.176Z,5.40
2023-03-12T22:26:07.175Z,5.27
2023-03-12T22:28:34.411Z,5.19
2023-03-12T22:31:04.257Z,5.15
2023-03-12T22:33:31.691Z,4.99
2023-03-12T22:35:58.772Z,4.85
2023-03-12T22:38:25.538Z,4.39
2023-03-12T22:40:54.954Z,3.70
2023-03-12T22:43:22.152Z,4.73
2023-03-12T22:45:53.213Z,4.84
2023-03-12T22:48:19.954Z,4.85
2023-03-12T22:50:54.129Z,4.88
2023-03-12T22:53:20.821Z,4.90
2023-03-12T22:55:47.365Z,5.04
2023-03-12T22:58:15.014Z,5.15
2023-03-12T23:00:41.607Z,5.23
2023-03-12T23:03:08.172Z,5.32
2023-03-12T23:05:34.943Z,5.33
2023-03-12T23:08:01.563Z,5.40
2023-03-12T23:10:28.164Z,5.51
2023-03-12T23:12:54.708Z,4.71
2023-03-12T23:15:24.522Z,5.47
2023-03-12T23:17:55.548Z,5.37
2023-03-12T23:20:23.768Z,5.30
2023-03-12T23:22:50.474Z,4.36
2023-03-12T23:25:17.184Z,5.28
2023-03-12T23:27:43.723Z,4.68
2023-03-12T23:30:11.176Z,5.38
2023-03-12T23:32:37.799Z,5.27
2023-03-12T23:35:04.655Z,4.71
2023-03-12T23:37:31.325Z,5.09
2023-03-12T23:39:57.871Z,5.22
2023-03-12T23:42:26.413Z,4.78
2023-03-12T23:44:52.984Z,5.16
2023-03-12T23:47:19.614Z,5.14
2023-03-12T23:49:46.179Z,4.32
2023-03-12T23:52:12.758Z,4.27
2023-03-12T23:54:39.380Z,4.22
2023-03-12T23:57:06.018Z,4.24
2023-03-12T23:59:32.628Z,4.15
